sensor_id;sensor_type;location;lat;lon;timestamp;P1;durP1;ratioP1;P2;durP2;ratioP2
53052;SDS011;38934;52.690;6.184;2024-03-08T00:01:30;37.42;;;19.77;;
53052;SDS011;38934;52.690;6.184;2024-03-08T00:03:56;34.85;;;19.48;;
53052;SDS011;38934;52.690;6.184;2024-03-08T00:06:22;33.35;;;20.33;;
53052;SDS011;38934;52.690;6.184;2024-03-08T00:08:48;38.70;;;20.65;;
53052;SDS011;38934;52.690;6.184;2024-03-08T00:11:14;35.42;;;18.73;;
53052;SDS011;38934;52.690;6.184;2024-03-08T00:13:40;34.45;;;19.63;;
53052;SDS011;38934;52.690;6.184;2024-03-08T00:16:05;35.45;;;19.05;;
53052;SDS011;38934;52.690;6.184;2024-03-08T00:18:31;38.80;;;20.52;;
53052;SDS011;38934;52.690;6.184;2024-03-08T00:20:57;34.90;;;20.33;;
53052;SDS011;38934;52.690;6.184;2024-03-08T00:23:23;32.90;;;19.55;;
53052;SDS011;38934;52.690;6.184;2024-03-08T00:25:48;39.28;;;21.92;;
53052;SDS011;38934;52.690;6.184;2024-03-08T00:28:14;35.60;;;19.63;;
53052;SDS011;38934;52.690;6.184;2024-03-08T00:30:42;39.95;;;20.17;;
53052;SDS011;38934;52.690;6.184;2024-03-08T00:33:07;40.17;;;20.95;;
53052;SDS011;38934;52.690;6.184;2024-03-08T00:35:33;40.58;;;20.70;;
53052;SDS011;38934;52.690;6.184;2024-03-08T00:37:59;39.92;;;19.98;;
53052;SDS011;38934;52.690;6.184;2024-03-08T00:40:24;38.08;;;21.48;;
53052;SDS011;38934;52.690;6.184;2024-03-08T00:42:50;33.78;;;19.63;;
53052;SDS011;38934;52.690;6.184;2024-03-08T00:45:15;42.88;;;22.75;;
53052;SDS011;38934;52.690;6.184;2024-03-08T00:47:41;38.17;;;19.50;;
53052;SDS011;38934;52.690;6.184;2024-03-08T00:50:09;37.72;;;21.63;;
53052;SDS011;38934;52.690;6.184;2024-03-08T00:52:35;34.03;;;19.52;;
53052;SDS011;38934;52.690;6.184;2024-03-08T00:55:01;37.60;;;20.73;;
53052;SDS011;38934;52.690;6.184;2024-03-08T00:57:27;37.55;;;20.10;;
53052;SDS011;38934;52.690;6.184;2024-03-08T00:59:53;34.88;;;20.00;;
53052;SDS011;38934;52.690;6.184;2024-03-08T01:02:18;37.90;;;19.73;;
53052;SDS011;38934;52.690;6.184;2024-03-08T01:04:44;36.80;;;19.92;;
53052;SDS011;38934;52.690;6.184;2024-03-08T01:07:12;36.95;;;20.15;;
53052;SDS011;38934;52.690;6.184;2024-03-08T01:09:37;37.88;;;21.05;;
53052;SDS011;38934;52.690;6.184;2024-03-08T01:12:03;38.45;;;21.75;;
53052;SDS011;38934;52.690;6.184;2024-03-08T01:14:30;38.38;;;20.42;;
53052;SDS011;38934;52.690;6.184;2024-03-08T01:16:56;36.53;;;19.67;;
53052;SDS011;38934;52.690;6.184;2024-03-08T01:19:21;39.53;;;20.70;;
53052;SDS011;38934;52.690;6.184;2024-03-08T01:21:47;35.03;;;19.90;;
53052;SDS011;38934;52.690;6.184;2024-03-08T01:24:12;37.85;;;21.15;;
53052;SDS011;38934;52.690;6.184;2024-03-08T01:26:38;39.72;;;21.10;;
53052;SDS011;38934;52.690;6.184;2024-03-08T01:29:04;39.38;;;21.98;;
53052;SDS011;38934;52.690;6.184;2024-03-08T01:31:30;35.95;;;19.88;;
53052;SDS011;38934;52.690;6.184;2024-03-08T01:33:56;38.95;;;21.70;;
53052;SDS011;38934;52.690;6.184;2024-03-08T01:36:22;37.50;;;20.15;;
53052;SDS011;38934;52.690;6.184;2024-03-08T01:38:48;35.83;;;19.65;;
53052;SDS011;38934;52.690;6.184;2024-03-08T01:41:14;40.10;;;20.83;;
53052;SDS011;38934;52.690;6.184;2024-03-08T01:43:41;37.50;;;21.30;;
53052;SDS011;38934;52.690;6.184;2024-03-08T01:46:06;39.33;;;22.13;;
53052;SDS011;38934;52.690;6.184;2024-03-08T01:48:34;41.10;;;21.55;;
53052;SDS011;38934;52.690;6.184;2024-03-08T01:50:59;40.53;;;21.60;;
53052;SDS011;38934;52.690;6.184;2024-03-08T01:53:26;45.53;;;22.02;;
53052;SDS011;38934;52.690;6.184;2024-03-08T01:55:52;36.97;;;21.80;;
53052;SDS011;38934;52.690;6.184;2024-03-08T01:58:21;39.47;;;21.55;;
53052;SDS011;38934;52.690;6.184;2024-03-08T02:00:47;43.17;;;21.23;;
53052;SDS011;38934;52.690;6.184;2024-03-08T02:03:17;39.13;;;21.38;;
53052;SDS011;38934;52.690;6.184;2024-03-08T02:05:43;39.70;;;21.30;;
53052;SDS011;38934;52.690;6.184;2024-03-08T02:08:09;43.33;;;22.08;;
53052;SDS011;38934;52.690;6.184;2024-03-08T02:10:43;39.80;;;22.77;;
53052;SDS011;38934;52.690;6.184;2024-03-08T02:13:10;41.45;;;21.92;;
53052;SDS011;38934;52.690;6.184;2024-03-08T02:18:18;37.13;;;21.60;;
53052;SDS011;38934;52.690;6.184;2024-03-08T02:20:45;39.30;;;21.83;;
53052;SDS011;38934;52.690;6.184;2024-03-08T02:23:12;39.05;;;21.40;;
53052;SDS011;38934;52.690;6.184;2024-03-08T02:25:39;38.08;;;20.58;;
53052;SDS011;38934;52.690;6.184;2024-03-08T02:28:06;37.80;;;22.17;;
53052;SDS011;38934;52.690;6.184;2024-03-08T02:30:36;40.17;;;22.17;;
53052;SDS011;38934;52.690;6.184;2024-03-08T02:33:01;35.80;;;20.73;;
53052;SDS011;38934;52.690;6.184;2024-03-08T02:35:27;38.30;;;20.98;;
53052;SDS011;38934;52.690;6.184;2024-03-08T02:37:53;34.13;;;19.98;;
53052;SDS011;38934;52.690;6.184;2024-03-08T02:40:18;38.42;;;22.33;;
53052;SDS011;38934;52.690;6.184;2024-03-08T02:42:44;39.67;;;21.67;;
53052;SDS011;38934;52.690;6.184;2024-03-08T02:45:09;38.78;;;21.00;;
53052;SDS011;38934;52.690;6.184;2024-03-08T02:47:35;38.08;;;20.92;;
53052;SDS011;38934;52.690;6.184;2024-03-08T02:50:01;36.50;;;20.75;;
53052;SDS011;38934;52.690;6.184;2024-03-08T02:52:27;39.88;;;21.55;;
53052;SDS011;38934;52.690;6.184;2024-03-08T02:54:52;43.08;;;22.05;;
53052;SDS011;38934;52.690;6.184;2024-03-08T02:57:18;37.85;;;21.25;;
53052;SDS011;38934;52.690;6.184;2024-03-08T02:59:43;37.90;;;22.10;;
53052;SDS011;38934;52.690;6.184;2024-03-08T03:02:10;40.75;;;22.00;;
53052;SDS011;38934;52.690;6.184;2024-03-08T03:04:39;39.08;;;22.08;;
53052;SDS011;38934;52.690;6.184;2024-03-08T03:07:05;36.17;;;21.20;;
53052;SDS011;38934;52.690;6.184;2024-03-08T03:09:30;41.03;;;22.98;;
53052;SDS011;38934;52.690;6.184;2024-03-08T03:11:58;36.45;;;21.35;;
53052;SDS011;38934;52.690;6.184;2024-03-08T03:14:23;39.20;;;22.55;;
53052;SDS011;38934;52.690;6.184;2024-03-08T03:16:51;38.63;;;21.63;;
53052;SDS011;38934;52.690;6.184;2024-03-08T03:19:17;42.10;;;23.88;;
53052;SDS011;38934;52.690;6.184;2024-03-08T03:21:43;37.58;;;21.05;;
53052;SDS011;38934;52.690;6.184;2024-03-08T03:24:08;39.10;;;21.80;;
53052;SDS011;38934;52.690;6.184;2024-03-08T03:26:38;35.15;;;20.63;;
53052;SDS011;38934;52.690;6.184;2024-03-08T03:29:07;41.15;;;22.73;;
53052;SDS011;38934;52.690;6.184;2024-03-08T03:31:33;41.60;;;22.05;;
53052;SDS011;38934;52.690;6.184;2024-03-08T03:33:59;38.65;;;22.10;;
53052;SDS011;38934;52.690;6.184;2024-03-08T03:36:28;39.08;;;21.35;;
53052;SDS011;38934;52.690;6.184;2024-03-08T03:38:54;41.88;;;23.02;;
53052;SDS011;38934;52.690;6.184;2024-03-08T03:41:37;38.60;;;23.40;;
53052;SDS011;38934;52.690;6.184;2024-03-08T03:44:03;38.60;;;21.23;;
53052;SDS011;38934;52.690;6.184;2024-03-08T03:46:32;41.83;;;23.52;;
53052;SDS011;38934;52.690;6.184;2024-03-08T03:48:58;39.58;;;23.27;;
53052;SDS011;38934;52.690;6.184;2024-03-08T03:51:24;39.10;;;21.52;;
53052;SDS011;38934;52.690;6.184;2024-03-08T03:53:51;40.55;;;21.80;;
53052;SDS011;38934;52.690;6.184;2024-03-08T03:56:18;37.15;;;22.70;;
53052;SDS011;38934;52.690;6.184;2024-03-08T03:58:43;38.85;;;21.50;;
53052;SDS011;38934;52.690;6.184;2024-03-08T04:01:09;40.10;;;22.15;;
53052;SDS011;38934;52.690;6.184;2024-03-08T04:03:35;45.03;;;23.30;;
53052;SDS011;38934;52.690;6.184;2024-03-08T04:06:01;41.50;;;22.55;;
53052;SDS011;38934;52.690;6.184;2024-03-08T04:08:30;38.45;;;22.27;;
53052;SDS011;38934;52.690;6.184;2024-03-08T04:10:56;38.85;;;22.27;;
53052;SDS011;38934;52.690;6.184;2024-03-08T04:13:23;40.45;;;23.45;;
53052;SDS011;38934;52.690;6.184;2024-03-08T04:15:48;41.15;;;22.73;;
53052;SDS011;38934;52.690;6.184;2024-03-08T04:18:14;40.53;;;22.98;;
53052;SDS011;38934;52.690;6.184;2024-03-08T04:20:40;41.33;;;23.02;;
53052;SDS011;38934;52.690;6.184;2024-03-08T04:23:06;41.33;;;23.95;;
53052;SDS011;38934;52.690;6.184;2024-03-08T04:25:32;40.05;;;22.80;;
53052;SDS011;38934;52.690;6.184;2024-03-08T04:27:57;40.38;;;22.52;;
53052;SDS011;38934;52.690;6.184;2024-03-08T04:30:23;42.92;;;23.10;;
53052;SDS011;38934;52.690;6.184;2024-03-08T04:32:49;40.75;;;22.60;;
53052;SDS011;38934;52.690;6.184;2024-03-08T04:35:15;40.80;;;23.45;;
53052;SDS011;38934;52.690;6.184;2024-03-08T04:37:41;36.75;;;22.02;;
53052;SDS011;38934;52.690;6.184;2024-03-08T04:40:06;42.30;;;23.10;;
53052;SDS011;38934;52.690;6.184;2024-03-08T04:42:32;48.50;;;24.13;;
53052;SDS011;38934;52.690;6.184;2024-03-08T04:44:59;45.40;;;24.48;;
53052;SDS011;38934;52.690;6.184;2024-03-08T04:47:25;40.90;;;23.38;;
53052;SDS011;38934;52.690;6.184;2024-03-08T04:49:51;41.95;;;23.58;;
53052;SDS011;38934;52.690;6.184;2024-03-08T04:52:16;41.67;;;22.88;;
53052;SDS011;38934;52.690;6.184;2024-03-08T04:54:42;38.50;;;22.05;;
53052;SDS011;38934;52.690;6.184;2024-03-08T04:57:09;41.30;;;24.60;;
53052;SDS011;38934;52.690;6.184;2024-03-08T04:59:36;42.47;;;22.92;;
53052;SDS011;38934;52.690;6.184;2024-03-08T05:02:01;41.97;;;22.88;;
53052;SDS011;38934;52.690;6.184;2024-03-08T05:04:27;43.53;;;24.98;;
53052;SDS011;38934;52.690;6.184;2024-03-08T05:06:54;41.50;;;23.17;;
53052;SDS011;38934;52.690;6.184;2024-03-08T05:09:20;45.90;;;24.45;;
53052;SDS011;38934;52.690;6.184;2024-03-08T05:11:46;43.80;;;23.90;;
53052;SDS011;38934;52.690;6.184;2024-03-08T05:14:12;38.40;;;22.92;;
53052;SDS011;38934;52.690;6.184;2024-03-08T05:16:45;42.70;;;24.08;;
53052;SDS011;38934;52.690;6.184;2024-03-08T05:21:42;42.42;;;24.75;;
53052;SDS011;38934;52.690;6.184;2024-03-08T05:24:09;41.55;;;24.10;;
53052;SDS011;38934;52.690;6.184;2024-03-08T05:26:35;41.00;;;22.95;;
53052;SDS011;38934;52.690;6.184;2024-03-08T05:29:02;46.53;;;23.77;;
53052;SDS011;38934;52.690;6.184;2024-03-08T05:31:28;42.88;;;23.40;;
53052;SDS011;38934;52.690;6.184;2024-03-08T05:33:55;45.70;;;24.48;;
53052;SDS011;38934;52.690;6.184;2024-03-08T05:36:21;44.47;;;24.52;;
53052;SDS011;38934;52.690;6.184;2024-03-08T05:38:47;45.30;;;23.75;;
53052;SDS011;38934;52.690;6.184;2024-03-08T05:41:14;40.33;;;22.80;;
53052;SDS011;38934;52.690;6.184;2024-03-08T05:43:40;42.90;;;23.10;;
53052;SDS011;38934;52.690;6.184;2024-03-08T05:46:06;43.35;;;24.17;;
53052;SDS011;38934;52.690;6.184;2024-03-08T05:48:32;42.67;;;24.77;;
53052;SDS011;38934;52.690;6.184;2024-03-08T05:50:58;42.83;;;24.52;;
53052;SDS011;38934;52.690;6.184;2024-03-08T05:53:25;39.08;;;24.35;;
53052;SDS011;38934;52.690;6.184;2024-03-08T05:55:51;44.13;;;24.25;;
53052;SDS011;38934;52.690;6.184;2024-03-08T05:58:17;44.20;;;24.25;;
53052;SDS011;38934;52.690;6.184;2024-03-08T06:00:42;41.58;;;22.83;;
53052;SDS011;38934;52.690;6.184;2024-03-08T06:03:09;45.13;;;23.92;;
53052;SDS011;38934;52.690;6.184;2024-03-08T06:05:34;46.67;;;23.85;;
53052;SDS011;38934;52.690;6.184;2024-03-08T06:08:00;43.25;;;23.65;;
53052;SDS011;38934;52.690;6.184;2024-03-08T06:10:25;51.08;;;24.77;;
53052;SDS011;38934;52.690;6.184;2024-03-08T06:12:51;43.92;;;25.55;;
53052;SDS011;38934;52.690;6.184;2024-03-08T06:15:17;40.67;;;23.45;;
53052;SDS011;38934;52.690;6.184;2024-03-08T06:17:45;49.88;;;25.17;;
53052;SDS011;38934;52.690;6.184;2024-03-08T06:20:11;45.53;;;23.98;;
53052;SDS011;38934;52.690;6.184;2024-03-08T06:22:38;43.67;;;24.10;;
53052;SDS011;38934;52.690;6.184;2024-03-08T06:25:07;42.03;;;23.67;;
53052;SDS011;38934;52.690;6.184;2024-03-08T06:27:41;45.33;;;25.25;;
53052;SDS011;38934;52.690;6.184;2024-03-08T06:30:07;46.85;;;25.52;;
53052;SDS011;38934;52.690;6.184;2024-03-08T06:32:37;38.83;;;23.85;;
53052;SDS011;38934;52.690;6.184;2024-03-08T06:35:05;47.17;;;25.40;;
53052;SDS011;38934;52.690;6.184;2024-03-08T06:37:32;42.08;;;24.55;;
53052;SDS011;38934;52.690;6.184;2024-03-08T06:39:58;46.30;;;25.52;;
53052;SDS011;38934;52.690;6.184;2024-03-08T06:42:24;47.20;;;26.55;;
53052;SDS011;38934;52.690;6.184;2024-03-08T06:44:49;50.13;;;26.25;;
53052;SDS011;38934;52.690;6.184;2024-03-08T06:47:15;47.00;;;26.15;;
53052;SDS011;38934;52.690;6.184;2024-03-08T06:49:44;46.25;;;25.90;;
53052;SDS011;38934;52.690;6.184;2024-03-08T06:52:10;46.22;;;27.08;;
53052;SDS011;38934;52.690;6.184;2024-03-08T06:54:36;41.75;;;24.67;;
53052;SDS011;38934;52.690;6.184;2024-03-08T06:57:03;45.33;;;23.98;;
53052;SDS011;38934;52.690;6.184;2024-03-08T06:59:29;43.50;;;24.88;;
53052;SDS011;38934;52.690;6.184;2024-03-08T07:01:54;40.83;;;24.33;;
53052;SDS011;38934;52.690;6.184;2024-03-08T07:04:20;38.92;;;20.45;;
53052;SDS011;38934;52.690;6.184;2024-03-08T07:06:47;40.78;;;22.83;;
53052;SDS011;38934;52.690;6.184;2024-03-08T07:09:15;39.80;;;23.85;;
53052;SDS011;38934;52.690;6.184;2024-03-08T07:11:42;42.72;;;24.05;;
53052;SDS011;38934;52.690;6.184;2024-03-08T07:14:07;42.92;;;23.60;;
53052;SDS011;38934;52.690;6.184;2024-03-08T07:16:34;41.72;;;25.02;;
53052;SDS011;38934;52.690;6.184;2024-03-08T07:19:03;42.10;;;24.63;;
53052;SDS011;38934;52.690;6.184;2024-03-08T07:21:29;43.88;;;24.02;;
53052;SDS011;38934;52.690;6.184;2024-03-08T07:23:56;44.38;;;23.60;;
53052;SDS011;38934;52.690;6.184;2024-03-08T07:26:24;43.25;;;23.27;;
53052;SDS011;38934;52.690;6.184;2024-03-08T07:28:49;39.83;;;23.30;;
53052;SDS011;38934;52.690;6.184;2024-03-08T07:31:15;41.25;;;24.80;;
53052;SDS011;38934;52.690;6.184;2024-03-08T07:34:07;40.42;;;22.75;;
53052;SDS011;38934;52.690;6.184;2024-03-08T07:36:35;42.30;;;24.25;;
53052;SDS011;38934;52.690;6.184;2024-03-08T07:39:01;42.70;;;23.98;;
53052;SDS011;38934;52.690;6.184;2024-03-08T07:41:27;42.42;;;23.83;;
53052;SDS011;38934;52.690;6.184;2024-03-08T07:43:55;41.20;;;23.52;;
53052;SDS011;38934;52.690;6.184;2024-03-08T07:46:20;44.30;;;24.65;;
53052;SDS011;38934;52.690;6.184;2024-03-08T07:48:46;45.40;;;24.38;;
53052;SDS011;38934;52.690;6.184;2024-03-08T07:51:15;42.63;;;24.38;;
53052;SDS011;38934;52.690;6.184;2024-03-08T07:53:42;42.03;;;24.63;;
53052;SDS011;38934;52.690;6.184;2024-03-08T07:56:08;42.38;;;23.50;;
53052;SDS011;38934;52.690;6.184;2024-03-08T07:58:38;43.05;;;24.52;;
53052;SDS011;38934;52.690;6.184;2024-03-08T08:01:06;38.33;;;22.80;;
53052;SDS011;38934;52.690;6.184;2024-03-08T08:03:31;40.90;;;23.98;;
53052;SDS011;38934;52.690;6.184;2024-03-08T08:05:57;42.35;;;24.13;;
53052;SDS011;38934;52.690;6.184;2024-03-08T08:08:23;40.10;;;22.02;;
53052;SDS011;38934;52.690;6.184;2024-03-08T08:10:51;43.80;;;24.52;;
53052;SDS011;38934;52.690;6.184;2024-03-08T08:13:16;39.47;;;23.63;;
53052;SDS011;38934;52.690;6.184;2024-03-08T08:15:43;40.55;;;22.98;;
53052;SDS011;38934;52.690;6.184;2024-03-08T08:18:09;39.63;;;22.48;;
53052;SDS011;38934;52.690;6.184;2024-03-08T08:20:34;42.13;;;23.67;;
53052;SDS011;38934;52.690;6.184;2024-03-08T08:23:00;39.78;;;22.73;;
53052;SDS011;38934;52.690;6.184;2024-03-08T08:25:26;40.92;;;24.15;;
53052;SDS011;38934;52.690;6.184;2024-03-08T08:27:51;40.35;;;23.38;;
53052;SDS011;38934;52.690;6.184;2024-03-08T08:30:19;38.03;;;22.35;;
53052;SDS011;38934;52.690;6.184;2024-03-08T08:32:45;38.80;;;23.08;;
53052;SDS011;38934;52.690;6.184;2024-03-08T08:35:12;41.80;;;24.52;;
53052;SDS011;38934;52.690;6.184;2024-03-08T08:37:38;39.45;;;23.02;;
53052;SDS011;38934;52.690;6.184;2024-03-08T08:40:04;40.92;;;24.60;;
53052;SDS011;38934;52.690;6.184;2024-03-08T08:42:34;40.47;;;23.38;;
53052;SDS011;38934;52.690;6.184;2024-03-08T08:45:01;40.63;;;24.63;;
53052;SDS011;38934;52.690;6.184;2024-03-08T08:47:32;38.05;;;21.67;;
53052;SDS011;38934;52.690;6.184;2024-03-08T08:49:58;39.53;;;24.60;;
53052;SDS011;38934;52.690;6.184;2024-03-08T08:52:25;37.90;;;23.33;;
53052;SDS011;38934;52.690;6.184;2024-03-08T08:54:51;38.75;;;22.00;;
53052;SDS011;38934;52.690;6.184;2024-03-08T08:57:16;40.08;;;22.90;;
53052;SDS011;38934;52.690;6.184;2024-03-08T08:59:42;46.55;;;25.15;;
53052;SDS011;38934;52.690;6.184;2024-03-08T09:02:08;41.25;;;22.90;;
53052;SDS011;38934;52.690;6.184;2024-03-08T09:04:36;37.85;;;22.08;;
53052;SDS011;38934;52.690;6.184;2024-03-08T09:07:02;39.53;;;23.10;;
53052;SDS011;38934;52.690;6.184;2024-03-08T09:09:31;39.83;;;23.92;;
53052;SDS011;38934;52.690;6.184;2024-03-08T09:11:57;42.53;;;23.05;;
53052;SDS011;38934;52.690;6.184;2024-03-08T09:14:22;39.17;;;23.58;;
53052;SDS011;38934;52.690;6.184;2024-03-08T09:16:48;39.38;;;23.90;;
53052;SDS011;38934;52.690;6.184;2024-03-08T09:19:14;36.72;;;24.15;;
53052;SDS011;38934;52.690;6.184;2024-03-08T09:21:40;37.67;;;23.67;;
53052;SDS011;38934;52.690;6.184;2024-03-08T09:24:06;46.05;;;24.17;;
53052;SDS011;38934;52.690;6.184;2024-03-08T09:26:32;42.22;;;24.25;;
53052;SDS011;38934;52.690;6.184;2024-03-08T09:28:58;39.33;;;23.90;;
53052;SDS011;38934;52.690;6.184;2024-03-08T09:31:24;42.92;;;24.45;;
53052;SDS011;38934;52.690;6.184;2024-03-08T09:33:51;37.70;;;23.65;;
53052;SDS011;38934;52.690;6.184;2024-03-08T09:36:17;40.92;;;23.95;;
53052;SDS011;38934;52.690;6.184;2024-03-08T09:38:43;37.47;;;23.13;;
53052;SDS011;38934;52.690;6.184;2024-03-08T09:41:09;40.67;;;24.40;;
53052;SDS011;38934;52.690;6.184;2024-03-08T09:43:35;37.33;;;22.60;;
53052;SDS011;38934;52.690;6.184;2024-03-08T09:46:01;39.03;;;24.25;;
53052;SDS011;38934;52.690;6.184;2024-03-08T09:48:29;40.45;;;23.75;;
53052;SDS011;38934;52.690;6.184;2024-03-08T09:50:55;40.35;;;25.40;;
53052;SDS011;38934;52.690;6.184;2024-03-08T09:53:21;36.80;;;22.25;;
53052;SDS011;38934;52.690;6.184;2024-03-08T09:55:47;39.53;;;24.30;;
53052;SDS011;38934;52.690;6.184;2024-03-08T09:58:15;34.45;;;22.50;;
53052;SDS011;38934;52.690;6.184;2024-03-08T10:00:42;42.05;;;24.30;;
53052;SDS011;38934;52.690;6.184;2024-03-08T10:03:08;40.80;;;24.83;;
53052;SDS011;38934;52.690;6.184;2024-03-08T10:05:35;39.80;;;24.48;;
53052;SDS011;38934;52.690;6.184;2024-03-08T10:08:01;42.28;;;24.55;;
53052;SDS011;38934;52.690;6.184;2024-03-08T10:10:26;35.92;;;22.00;;
53052;SDS011;38934;52.690;6.184;2024-03-08T10:12:52;36.60;;;23.67;;
53052;SDS011;38934;52.690;6.184;2024-03-08T10:15:18;37.58;;;23.88;;
53052;SDS011;38934;52.690;6.184;2024-03-08T10:17:45;40.50;;;23.80;;
53052;SDS011;38934;52.690;6.184;2024-03-08T10:20:14;39.90;;;23.92;;
53052;SDS011;38934;52.690;6.184;2024-03-08T10:22:41;41.53;;;24.73;;
53052;SDS011;38934;52.690;6.184;2024-03-08T10:25:10;41.10;;;24.70;;
53052;SDS011;38934;52.690;6.184;2024-03-08T10:27:37;39.20;;;23.30;;
53052;SDS011;38934;52.690;6.184;2024-03-08T10:30:05;35.95;;;23.65;;
53052;SDS011;38934;52.690;6.184;2024-03-08T10:32:35;34.83;;;23.70;;
53052;SDS011;38934;52.690;6.184;2024-03-08T10:35:00;41.53;;;25.10;;
53052;SDS011;38934;52.690;6.184;2024-03-08T10:37:26;39.75;;;24.63;;
53052;SDS011;38934;52.690;6.184;2024-03-08T10:40:03;40.95;;;24.88;;
53052;SDS011;38934;52.690;6.184;2024-03-08T10:45:38;35.28;;;22.75;;
53052;SDS011;38934;52.690;6.184;2024-03-08T10:50:57;35.53;;;23.30;;
53052;SDS011;38934;52.690;6.184;2024-03-08T10:53:23;36.55;;;23.67;;
53052;SDS011;38934;52.690;6.184;2024-03-08T10:55:52;38.90;;;24.05;;
53052;SDS011;38934;52.690;6.184;2024-03-08T10:58:22;39.33;;;23.85;;
53052;SDS011;38934;52.690;6.184;2024-03-08T11:00:56;38.75;;;23.40;;
53052;SDS011;38934;52.690;6.184;2024-03-08T11:06:22;38.05;;;23.75;;
53052;SDS011;38934;52.690;6.184;2024-03-08T11:08:48;34.70;;;23.00;;
53052;SDS011;38934;52.690;6.184;2024-03-08T11:11:25;37.20;;;23.48;;
53052;SDS011;38934;52.690;6.184;2024-03-08T11:13:52;36.50;;;23.83;;
53052;SDS011;38934;52.690;6.184;2024-03-08T11:18:56;36.22;;;24.23;;
53052;SDS011;38934;52.690;6.184;2024-03-08T11:21:29;35.15;;;21.98;;
53052;SDS011;38934;52.690;6.184;2024-03-08T11:24:00;37.85;;;24.40;;
53052;SDS011;38934;52.690;6.184;2024-03-08T11:26:26;41.65;;;26.67;;
53052;SDS011;38934;52.690;6.184;2024-03-08T11:28:52;38.53;;;24.95;;
53052;SDS011;38934;52.690;6.184;2024-03-08T11:31:23;37.45;;;23.63;;
53052;SDS011;38934;52.690;6.184;2024-03-08T11:33:50;36.67;;;23.27;;
53052;SDS011;38934;52.690;6.184;2024-03-08T11:36:22;39.58;;;25.17;;
53052;SDS011;38934;52.690;6.184;2024-03-08T11:38:49;37.17;;;23.80;;
53052;SDS011;38934;52.690;6.184;2024-03-08T11:41:18;36.75;;;23.92;;
53052;SDS011;38934;52.690;6.184;2024-03-08T11:43:45;39.17;;;24.38;;
53052;SDS011;38934;52.690;6.184;2024-03-08T11:46:11;42.40;;;24.23;;
53052;SDS011;38934;52.690;6.184;2024-03-08T11:48:39;35.83;;;23.88;;
53052;SDS011;38934;52.690;6.184;2024-03-08T11:51:07;35.60;;;23.67;;
53052;SDS011;38934;52.690;6.184;2024-03-08T11:53:36;35.25;;;23.58;;
53052;SDS011;38934;52.690;6.184;2024-03-08T11:56:09;35.05;;;22.55;;
53052;SDS011;38934;52.690;6.184;2024-03-08T11:58:36;35.85;;;22.63;;
53052;SDS011;38934;52.690;6.184;2024-03-08T12:01:06;35.22;;;23.27;;
53052;SDS011;38934;52.690;6.184;2024-03-08T12:03:39;33.55;;;22.60;;
53052;SDS011;38934;52.690;6.184;2024-03-08T12:06:07;34.70;;;22.60;;
53052;SDS011;38934;52.690;6.184;2024-03-08T12:08:34;35.15;;;21.27;;
53052;SDS011;38934;52.690;6.184;2024-03-08T12:11:00;32.15;;;22.35;;
53052;SDS011;38934;52.690;6.184;2024-03-08T12:15:59;35.28;;;23.52;;
53052;SDS011;38934;52.690;6.184;2024-03-08T12:18:28;31.70;;;21.33;;
53052;SDS011;38934;52.690;6.184;2024-03-08T12:21:05;33.35;;;22.05;;
53052;SDS011;38934;52.690;6.184;2024-03-08T12:23:42;32.58;;;22.40;;
53052;SDS011;38934;52.690;6.184;2024-03-08T12:26:12;32.17;;;22.23;;
53052;SDS011;38934;52.690;6.184;2024-03-08T12:28:41;33.05;;;22.13;;
53052;SDS011;38934;52.690;6.184;2024-03-08T12:31:07;34.25;;;21.75;;
53052;SDS011;38934;52.690;6.184;2024-03-08T12:33:57;37.20;;;22.75;;
53052;SDS011;38934;52.690;6.184;2024-03-08T12:36:24;31.05;;;22.10;;
53052;SDS011;38934;52.690;6.184;2024-03-08T12:38:50;35.22;;;22.27;;
53052;SDS011;38934;52.690;6.184;2024-03-08T12:41:19;33.90;;;23.08;;
53052;SDS011;38934;52.690;6.184;2024-03-08T12:43:46;33.55;;;20.67;;
53052;SDS011;38934;52.690;6.184;2024-03-08T12:46:15;32.53;;;21.48;;
53052;SDS011;38934;52.690;6.184;2024-03-08T12:48:42;32.83;;;21.52;;
53052;SDS011;38934;52.690;6.184;2024-03-08T12:51:12;34.03;;;22.13;;
53052;SDS011;38934;52.690;6.184;2024-03-08T12:53:38;30.73;;;21.48;;
53052;SDS011;38934;52.690;6.184;2024-03-08T12:56:05;31.13;;;20.67;;
53052;SDS011;38934;52.690;6.184;2024-03-08T12:58:34;31.60;;;21.02;;
53052;SDS011;38934;52.690;6.184;2024-03-08T13:01:01;31.63;;;20.00;;
53052;SDS011;38934;52.690;6.184;2024-03-08T13:03:32;32.03;;;20.90;;
53052;SDS011;38934;52.690;6.184;2024-03-08T13:06:02;29.50;;;20.80;;
53052;SDS011;38934;52.690;6.184;2024-03-08T13:08:30;29.05;;;19.80;;
53052;SDS011;38934;52.690;6.184;2024-03-08T13:11:00;31.25;;;21.55;;
53052;SDS011;38934;52.690;6.184;2024-03-08T13:13:44;28.83;;;19.95;;
53052;SDS011;38934;52.690;6.184;2024-03-08T13:16:10;34.40;;;20.85;;
53052;SDS011;38934;52.690;6.184;2024-03-08T13:18:40;31.40;;;20.42;;
53052;SDS011;38934;52.690;6.184;2024-03-08T13:21:07;27.20;;;19.55;;
53052;SDS011;38934;52.690;6.184;2024-03-08T13:23:34;32.90;;;20.33;;
53052;SDS011;38934;52.690;6.184;2024-03-08T13:26:04;30.30;;;20.67;;
53052;SDS011;38934;52.690;6.184;2024-03-08T13:28:34;29.33;;;19.75;;
53052;SDS011;38934;52.690;6.184;2024-03-08T13:31:08;29.70;;;19.33;;
53052;SDS011;38934;52.690;6.184;2024-03-08T13:33:36;32.63;;;19.80;;
53052;SDS011;38934;52.690;6.184;2024-03-08T13:36:04;31.42;;;20.33;;
53052;SDS011;38934;52.690;6.184;2024-03-08T13:38:40;29.35;;;19.35;;
53052;SDS011;38934;52.690;6.184;2024-03-08T13:41:13;28.27;;;19.00;;
53052;SDS011;38934;52.690;6.184;2024-03-08T13:43:40;29.00;;;19.65;;
53052;SDS011;38934;52.690;6.184;2024-03-08T13:46:06;28.63;;;19.55;;
53052;SDS011;38934;52.690;6.184;2024-03-08T13:48:35;28.45;;;19.35;;
53052;SDS011;38934;52.690;6.184;2024-03-08T13:51:05;32.28;;;21.98;;
53052;SDS011;38934;52.690;6.184;2024-03-08T13:53:31;29.48;;;20.25;;
53052;SDS011;38934;52.690;6.184;2024-03-08T13:55:58;31.25;;;20.83;;
53052;SDS011;38934;52.690;6.184;2024-03-08T13:58:25;29.48;;;19.85;;
53052;SDS011;38934;52.690;6.184;2024-03-08T14:00:51;29.88;;;20.23;;
53052;SDS011;38934;52.690;6.184;2024-03-08T14:03:17;28.83;;;20.15;;
53052;SDS011;38934;52.690;6.184;2024-03-08T14:05:43;29.63;;;20.25;;
53052;SDS011;38934;52.690;6.184;2024-03-08T14:08:09;30.45;;;20.20;;
53052;SDS011;38934;52.690;6.184;2024-03-08T14:10:37;31.52;;;21.45;;
53052;SDS011;38934;52.690;6.184;2024-03-08T14:13:03;28.60;;;19.35;;
53052;SDS011;38934;52.690;6.184;2024-03-08T14:15:33;31.25;;;20.95;;
53052;SDS011;38934;52.690;6.184;2024-03-08T14:17:59;27.52;;;19.55;;
53052;SDS011;38934;52.690;6.184;2024-03-08T14:20:26;29.98;;;20.63;;
53052;SDS011;38934;52.690;6.184;2024-03-08T14:22:55;29.85;;;20.27;;
53052;SDS011;38934;52.690;6.184;2024-03-08T14:25:21;33.17;;;21.27;;
53052;SDS011;38934;52.690;6.184;2024-03-08T14:27:49;28.45;;;19.38;;
53052;SDS011;38934;52.690;6.184;2024-03-08T14:30:19;29.65;;;19.95;;
53052;SDS011;38934;52.690;6.184;2024-03-08T14:33:07;31.70;;;21.45;;
53052;SDS011;38934;52.690;6.184;2024-03-08T14:35:36;30.60;;;20.98;;
53052;SDS011;38934;52.690;6.184;2024-03-08T14:38:05;30.05;;;20.80;;
53052;SDS011;38934;52.690;6.184;2024-03-08T14:40:33;31.48;;;20.63;;